sensor_id;sensor_type;location;lat;lon;timestamp;temperature;humidity
18712;DHT22;9485;49.386;8.674;2022-09-30T00:03:05;14.20;92.10
18712;DHT22;9485;49.386;8.674;2022-09-30T00:08:25;14.20;92.20
18712;DHT22;9485;49.386;8.674;2022-09-30T00:13:49;14.20;92.30
18712;DHT22;9485;49.386;8.674;2022-09-30T00:19:10;14.20;92.20
18712;DHT22;9485;49.386;8.674;2022-09-30T00:24:36;14.20;92.30
18712;DHT22;9485;49.386;8.674;2022-09-30T00:29:58;14.20;92.20
18712;DHT22;9485;49.386;8.674;2022-09-30T00:35:19;14.20;92.20
18712;DHT22;9485;49.386;8.674;2022-09-30T00:40:40;14.20;92.30
18712;DHT22;9485;49.386;8.674;2022-09-30T00:46:02;14.10;92.20
18712;DHT22;9485;49.386;8.674;2022-09-30T00:51:29;14.10;92.10
18712;DHT22;9485;49.386;8.674;2022-09-30T00:56:57;14.10;92.00
18712;DHT22;9485;49.386;8.674;2022-09-30T01:02:22;14.00;92.10
18712;DHT22;9485;49.386;8.674;2022-09-30T01:07:43;14.00;92.20
18712;DHT22;9485;49.386;8.674;2022-09-30T01:13:04;13.90;92.20
18712;DHT22;9485;49.386;8.674;2022-09-30T01:18:32;13.90;92.20
18712;DHT22;9485;49.386;8.674;2022-09-30T01:24:20;13.90;92.10
18712;DHT22;9485;49.386;8.674;2022-09-30T01:30:13;13.80;91.90
18712;DHT22;9485;49.386;8.674;2022-09-30T01:41:52;13.70;91.80
18712;DHT22;9485;49.386;8.674;2022-09-30T01:47:19;13.60;92.20
18712;DHT22;9485;49.386;8.674;2022-09-30T01:52:51;13.60;92.40
18712;DHT22;9485;49.386;8.674;2022-09-30T01:58:21;13.60;92.40
18712;DHT22;9485;49.386;8.674;2022-09-30T02:03:51;13.70;92.50
18712;DHT22;9485;49.386;8.674;2022-09-30T02:09:21;13.70;92.60
18712;DHT22;9485;49.386;8.674;2022-09-30T02:14:47;13.70;92.70
18712;DHT22;9485;49.386;8.674;2022-09-30T02:20:15;13.70;92.80
18712;DHT22;9485;49.386;8.674;2022-09-30T02:25:44;13.70;92.80
18712;DHT22;9485;49.386;8.674;2022-09-30T02:31:09;13.70;92.80
18712;DHT22;9485;49.386;8.674;2022-09-30T02:36:35;13.70;92.80
18712;DHT22;9485;49.386;8.674;2022-09-30T02:42:06;13.80;92.90
18712;DHT22;9485;49.386;8.674;2022-09-30T02:47:40;13.80;92.90
18712;DHT22;9485;49.386;8.674;2022-09-30T02:53:18;13.80;92.80
18712;DHT22;9485;49.386;8.674;2022-09-30T02:58:46;13.90;92.80
18712;DHT22;9485;49.386;8.674;2022-09-30T03:04:12;13.90;93.00
18712;DHT22;9485;49.386;8.674;2022-09-30T03:09:37;13.90;92.90
18712;DHT22;9485;49.386;8.674;2022-09-30T03:15:24;13.90;92.90
18712;DHT22;9485;49.386;8.674;2022-09-30T03:21:05;13.90;92.50
18712;DHT22;9485;49.386;8.674;2022-09-30T03:26:38;13.90;92.70
18712;DHT22;9485;49.386;8.674;2022-09-30T03:32:18;13.90;92.70
18712;DHT22;9485;49.386;8.674;2022-09-30T03:37:56;13.90;92.70
18712;DHT22;9485;49.386;8.674;2022-09-30T03:43:28;13.90;92.70
18712;DHT22;9485;49.386;8.674;2022-09-30T03:48:56;14.00;92.70
18712;DHT22;9485;49.386;8.674;2022-09-30T03:54:21;13.90;92.60
18712;DHT22;9485;49.386;8.674;2022-09-30T03:59:42;13.90;92.70
18712;DHT22;9485;49.386;8.674;2022-09-30T04:05:05;13.90;92.80
18712;DHT22;9485;49.386;8.674;2022-09-30T04:10:27;13.90;92.70
18712;DHT22;9485;49.386;8.674;2022-09-30T04:15:52;13.80;92.50
18712;DHT22;9485;49.386;8.674;2022-09-30T04:21:15;13.80;92.40
18712;DHT22;9485;49.386;8.674;2022-09-30T04:26:36;13.80;92.50
18712;DHT22;9485;49.386;8.674;2022-09-30T04:31:57;13.70;92.40
18712;DHT22;9485;49.386;8.674;2022-09-30T04:37:19;13.60;92.40
18712;DHT22;9485;49.386;8.674;2022-09-30T04:42:41;13.60;92.30
18712;DHT22;9485;49.386;8.674;2022-09-30T04:48:02;13.50;92.40
18712;DHT22;9485;49.386;8.674;2022-09-30T04:53:24;13.50;92.50
18712;DHT22;9485;49.386;8.674;2022-09-30T04:58:45;13.40;92.50
18712;DHT22;9485;49.386;8.674;2022-09-30T05:04:06;13.40;92.70
18712;DHT22;9485;49.386;8.674;2022-09-30T05:09:29;13.40;92.80
18712;DHT22;9485;49.386;8.674;2022-09-30T05:14:49;13.40;92.70
18712;DHT22;9485;49.386;8.674;2022-09-30T05:20:10;13.40;92.60
18712;DHT22;9485;49.386;8.674;2022-09-30T05:25:33;13.30;92.50
18712;DHT22;9485;49.386;8.674;2022-09-30T05:30:56;13.30;92.60
18712;DHT22;9485;49.386;8.674;2022-09-30T05:36:18;13.30;92.80
18712;DHT22;9485;49.386;8.674;2022-09-30T05:41:40;13.30;92.90
18712;DHT22;9485;49.386;8.674;2022-09-30T05:47:01;13.30;92.90
18712;DHT22;9485;49.386;8.674;2022-09-30T05:52:24;13.30;92.90
18712;DHT22;9485;49.386;8.674;2022-09-30T05:57:48;13.30;92.90
18712;DHT22;9485;49.386;8.674;2022-09-30T06:03:10;13.40;92.90
18712;DHT22;9485;49.386;8.674;2022-09-30T06:08:35;13.30;92.90
18712;DHT22;9485;49.386;8.674;2022-09-30T06:13:57;13.40;93.00
18712;DHT22;9485;49.386;8.674;2022-09-30T06:19:17;13.40;92.90
18712;DHT22;9485;49.386;8.674;2022-09-30T06:24:39;13.40;92.80
18712;DHT22;9485;49.386;8.674;2022-09-30T06:30:03;13.40;92.90
18712;DHT22;9485;49.386;8.674;2022-09-30T06:35:24;13.50;93.00
18712;DHT22;9485;49.386;8.674;2022-09-30T06:40:46;13.50;93.10
18712;DHT22;9485;49.386;8.674;2022-09-30T06:46:10;13.60;93.20
18712;DHT22;9485;49.386;8.674;2022-09-30T06:51:31;13.60;93.20
18712;DHT22;9485;49.386;8.674;2022-09-30T06:56:52;13.70;93.20
18712;DHT22;9485;49.386;8.674;2022-09-30T07:02:17;13.80;93.10
18712;DHT22;9485;49.386;8.674;2022-09-30T07:07:38;13.80;93.00
18712;DHT22;9485;49.386;8.674;2022-09-30T07:12:59;13.80;93.00
18712;DHT22;9485;49.386;8.674;2022-09-30T07:18:23;13.80;92.90
18712;DHT22;9485;49.386;8.674;2022-09-30T07:23:46;13.90;92.80
18712;DHT22;9485;49.386;8.674;2022-09-30T07:29:07;13.90;92.90
18712;DHT22;9485;49.386;8.674;2022-09-30T07:34:29;14.10;93.00
18712;DHT22;9485;49.386;8.674;2022-09-30T07:39:50;14.10;93.00
18712;DHT22;9485;49.386;8.674;2022-09-30T07:45:11;14.10;93.00
18712;DHT22;9485;49.386;8.674;2022-09-30T07:50:38;14.20;92.90
18712;DHT22;9485;49.386;8.674;2022-09-30T07:56:04;14.30;92.80
18712;DHT22;9485;49.386;8.674;2022-09-30T08:01:26;14.40;92.90
18712;DHT22;9485;49.386;8.674;2022-09-30T08:06:55;14.60;92.90
18712;DHT22;9485;49.386;8.674;2022-09-30T08:12:17;14.80;92.50
18712;DHT22;9485;49.386;8.674;2022-09-30T08:17:37;15.00;92.90
18712;DHT22;9485;49.386;8.674;2022-09-30T08:22:59;15.30;93.60
18712;DHT22;9485;49.386;8.674;2022-09-30T08:28:20;15.90;94.10
18712;DHT22;9485;49.386;8.674;2022-09-30T08:33:42;16.80;94.70
18712;DHT22;9485;49.386;8.674;2022-09-30T08:39:05;17.90;94.50
18712;DHT22;9485;49.386;8.674;2022-09-30T08:44:38;19.00;93.30
18712;DHT22;9485;49.386;8.674;2022-09-30T08:50:10;20.00;92.00
18712;DHT22;9485;49.386;8.674;2022-09-30T08:55:42;21.10;90.80
18712;DHT22;9485;49.386;8.674;2022-09-30T09:01:12;22.20;89.50
18712;DHT22;9485;49.386;8.674;2022-09-30T09:06:46;23.10;86.70
18712;DHT22;9485;49.386;8.674;2022-09-30T09:12:24;24.00;83.10
18712;DHT22;9485;49.386;8.674;2022-09-30T09:18:03;24.80;79.20
18712;DHT22;9485;49.386;8.674;2022-09-30T09:23:50;25.00;75.00
18712;DHT22;9485;49.386;8.674;2022-09-30T09:29:26;24.70;75.80
18712;DHT22;9485;49.386;8.674;2022-09-30T09:34:58;24.10;72.60
18712;DHT22;9485;49.386;8.674;2022-09-30T09:40:26;23.50;74.70
18712;DHT22;9485;49.386;8.674;2022-09-30T09:45:58;22.90;74.30
18712;DHT22;9485;49.386;8.674;2022-09-30T09:51:27;22.50;74.70
18712;DHT22;9485;49.386;8.674;2022-09-30T09:56:52;22.20;75.50
18712;DHT22;9485;49.386;8.674;2022-09-30T10:02:24;22.10;78.80
18712;DHT22;9485;49.386;8.674;2022-09-30T10:07:46;22.60;78.10
18712;DHT22;9485;49.386;8.674;2022-09-30T10:13:17;23.30;80.50
18712;DHT22;9485;49.386;8.674;2022-09-30T10:18:41;24.00;78.30
18712;DHT22;9485;49.386;8.674;2022-09-30T10:24:19;24.70;77.40
18712;DHT22;9485;49.386;8.674;2022-09-30T10:29:47;25.00;73.20
18712;DHT22;9485;49.386;8.674;2022-09-30T10:35:19;25.50;77.20
18712;DHT22;9485;49.386;8.674;2022-09-30T10:40:47;26.30;72.00
18712;DHT22;9485;49.386;8.674;2022-09-30T10:46:10;27.00;70.10
18712;DHT22;9485;49.386;8.674;2022-09-30T10:51:33;26.90;70.00
18712;DHT22;9485;49.386;8.674;2022-09-30T10:56:54;26.40;65.80
18712;DHT22;9485;49.386;8.674;2022-09-30T11:02:24;25.70;66.80
18712;DHT22;9485;49.386;8.674;2022-09-30T11:07:53;24.90;64.70
18712;DHT22;9485;49.386;8.674;2022-09-30T11:13:25;24.10;66.60
18712;DHT22;9485;49.386;8.674;2022-09-30T11:18:55;23.40;68.60
18712;DHT22;9485;49.386;8.674;2022-09-30T11:24:25;22.80;68.60
18712;DHT22;9485;49.386;8.674;2022-09-30T11:30:00;22.30;69.80
18712;DHT22;9485;49.386;8.674;2022-09-30T11:35:41;22.00;69.90
18712;DHT22;9485;49.386;8.674;2022-09-30T11:41:13;21.70;70.20
18712;DHT22;9485;49.386;8.674;2022-09-30T11:47:01;21.50;72.30
18712;DHT22;9485;49.386;8.674;2022-09-30T11:52:39;21.70;72.60
18712;DHT22;9485;49.386;8.674;2022-09-30T11:58:16;22.30;73.80
18712;DHT22;9485;49.386;8.674;2022-09-30T12:03:45;23.20;75.30
18712;DHT22;9485;49.386;8.674;2022-09-30T12:09:17;24.20;75.20
18712;DHT22;9485;49.386;8.674;2022-09-30T12:14:47;25.00;71.80
18712;DHT22;9485;49.386;8.674;2022-09-30T12:20:17;25.40;71.20
18712;DHT22;9485;49.386;8.674;2022-09-30T12:25:48;25.80;71.60
18712;DHT22;9485;49.386;8.674;2022-09-30T12:31:33;26.30;69.80
18712;DHT22;9485;49.386;8.674;2022-09-30T12:37:27;26.60;66.20
18712;DHT22;9485;49.386;8.674;2022-09-30T12:43:28;26.90;65.60
18712;DHT22;9485;49.386;8.674;2022-09-30T12:49:06;27.00;63.50
18712;DHT22;9485;49.386;8.674;2022-09-30T12:54:35;27.00;67.00
18712;DHT22;9485;49.386;8.674;2022-09-30T13:00:05;26.90;65.60
18712;DHT22;9485;49.386;8.674;2022-09-30T13:05:51;26.60;64.70
18712;DHT22;9485;49.386;8.674;2022-09-30T13:11:32;26.30;62.20
18712;DHT22;9485;49.386;8.674;2022-09-30T13:17:24;26.20;62.20
18712;DHT22;9485;49.386;8.674;2022-09-30T13:22:57;26.20;62.00
18712;DHT22;9485;49.386;8.674;2022-09-30T13:28:36;26.20;64.20
18712;DHT22;9485;49.386;8.674;2022-09-30T13:34:09;26.30;62.90
18712;DHT22;9485;49.386;8.674;2022-09-30T13:39:44;26.40;62.80
18712;DHT22;9485;49.386;8.674;2022-09-30T13:45:11;26.50;61.70
18712;DHT22;9485;49.386;8.674;2022-09-30T13:50:43;26.40;62.10
18712;DHT22;9485;49.386;8.674;2022-09-30T13:56:12;25.90;61.60
18712;DHT22;9485;49.386;8.674;2022-09-30T14:01:49;25.50;61.00
18712;DHT22;9485;49.386;8.674;2022-09-30T14:07:35;25.00;62.10
18712;DHT22;9485;49.386;8.674;2022-09-30T14:13:21;24.70;61.00
18712;DHT22;9485;49.386;8.674;2022-09-30T14:19:14;24.40;62.00
18712;DHT22;9485;49.386;8.674;2022-09-30T14:24:42;24.20;61.10
18712;DHT22;9485;49.386;8.674;2022-09-30T14:30:10;24.00;65.00
18712;DHT22;9485;49.386;8.674;2022-09-30T14:35:35;23.70;62.80
18712;DHT22;9485;49.386;8.674;2022-09-30T14:41:02;23.40;64.00
18712;DHT22;9485;49.386;8.674;2022-09-30T14:46:32;23.10;64.90
18712;DHT22;9485;49.386;8.674;2022-09-30T14:51:56;22.90;64.00
18712;DHT22;9485;49.386;8.674;2022-09-30T14:57:23;22.70;65.50
18712;DHT22;9485;49.386;8.674;2022-09-30T15:02:45;22.60;65.40
18712;DHT22;9485;49.386;8.674;2022-09-30T15:08:09;22.40;65.30
18712;DHT22;9485;49.386;8.674;2022-09-30T15:13:32;22.30;65.70
18712;DHT22;9485;49.386;8.674;2022-09-30T15:18:56;22.30;66.70
18712;DHT22;9485;49.386;8.674;2022-09-30T15:24:19;22.20;66.20
18712;DHT22;9485;49.386;8.674;2022-09-30T15:29:53;22.10;66.40
18712;DHT22;9485;49.386;8.674;2022-09-30T15:35:18;22.00;64.50
18712;DHT22;9485;49.386;8.674;2022-09-30T15:40:43;21.90;66.20
18712;DHT22;9485;49.386;8.674;2022-09-30T15:46:21;21.80;65.40
18712;DHT22;9485;49.386;8.674;2022-09-30T15:51:48;21.60;64.50
18712;DHT22;9485;49.386;8.674;2022-09-30T15:57:42;21.50;66.70
18712;DHT22;9485;49.386;8.674;2022-09-30T16:03:22;21.20;65.30
18712;DHT22;9485;49.386;8.674;2022-09-30T16:08:47;21.10;66.30
18712;DHT22;9485;49.386;8.674;2022-09-30T16:14:20;20.80;67.00
18712;DHT22;9485;49.386;8.674;2022-09-30T16:19:49;20.60;67.10
18712;DHT22;9485;49.386;8.674;2022-09-30T16:25:16;20.40;66.90
18712;DHT22;9485;49.386;8.674;2022-09-30T16:30:43;20.20;68.00
18712;DHT22;9485;49.386;8.674;2022-09-30T16:36:08;20.00;68.10
18712;DHT22;9485;49.386;8.674;2022-09-30T16:41:29;19.80;68.90
18712;DHT22;9485;49.386;8.674;2022-09-30T16:46:53;19.60;69.10
18712;DHT22;9485;49.386;8.674;2022-09-30T16:52:14;19.50;70.10
18712;DHT22;9485;49.386;8.674;2022-09-30T16:57:35;19.30;70.00
18712;DHT22;9485;49.386;8.674;2022-09-30T17:02:57;19.10;70.10
18712;DHT22;9485;49.386;8.674;2022-09-30T17:08:21;18.90;70.00
18712;DHT22;9485;49.386;8.674;2022-09-30T17:13:42;18.60;69.90
18712;DHT22;9485;49.386;8.674;2022-09-30T17:19:05;18.40;70.50
18712;DHT22;9485;49.386;8.674;2022-09-30T17:24:25;18.20;70.90
18712;DHT22;9485;49.386;8.674;2022-09-30T17:29:46;17.90;71.60
18712;DHT22;9485;49.386;8.674;2022-09-30T17:35:08;17.70;72.20
18712;DHT22;9485;49.386;8.674;2022-09-30T17:40:29;17.50;72.30
18712;DHT22;9485;49.386;8.674;2022-09-30T17:46:13;17.30;72.70
18712;DHT22;9485;49.386;8.674;2022-09-30T17:51:38;17.20;73.30
18712;DHT22;9485;49.386;8.674;2022-09-30T17:56:59;17.00;73.60
18712;DHT22;9485;49.386;8.674;2022-09-30T18:02:20;16.80;74.00
18712;DHT22;9485;49.386;8.674;2022-09-30T18:07:44;16.70;74.50
18712;DHT22;9485;49.386;8.674;2022-09-30T18:13:05;16.50;74.90
18712;DHT22;9485;49.386;8.674;2022-09-30T18:18:25;16.40;75.50
18712;DHT22;9485;49.386;8.674;2022-09-30T18:23:49;16.30;75.70
18712;DHT22;9485;49.386;8.674;2022-09-30T18:29:10;16.20;75.70
18712;DHT22;9485;49.386;8.674;2022-09-30T18:34:31;16.00;76.00
18712;DHT22;9485;49.386;8.674;2022-09-30T18:39:54;15.90;76.30
18712;DHT22;9485;49.386;8.674;2022-09-30T18:45:15;15.70;76.40
18712;DHT22;9485;49.386;8.674;2022-09-30T18:50:35;15.60;76.90
18712;DHT22;9485;49.386;8.674;2022-09-30T18:56:00;15.50;77.50
18712;DHT22;9485;49.386;8.674;2022-09-30T19:01:21;15.30;77.60
18712;DHT22;9485;49.386;8.674;2022-09-30T19:06:43;15.20;78.10
18712;DHT22;9485;49.386;8.674;2022-09-30T19:12:07;15.10;78.40
18712;DHT22;9485;49.386;8.674;2022-09-30T19:17:27;15.10;78.70
18712;DHT22;9485;49.386;8.674;2022-09-30T19:22:49;15.00;79.10
18712;DHT22;9485;49.386;8.674;2022-09-30T19:28:27;14.90;79.50
18712;DHT22;9485;49.386;8.674;2022-09-30T19:33:52;14.80;79.10
18712;DHT22;9485;49.386;8.674;2022-09-30T19:39:14;14.80;79.70
18712;DHT22;9485;49.386;8.674;2022-09-30T19:44:36;14.70;80.00
18712;DHT22;9485;49.386;8.674;2022-09-30T19:49:57;14.60;80.40
18712;DHT22;9485;49.386;8.674;2022-09-30T19:55:18;14.60;80.80
18712;DHT22;9485;49.386;8.674;2022-09-30T20:00:40;14.50;80.90
18712;DHT22;9485;49.386;8.674;2022-09-30T20:06:03;14.50;81.10
18712;DHT22;9485;49.386;8.674;2022-09-30T20:11:28;14.40;81.20
18712;DHT22;9485;49.386;8.674;2022-09-30T20:16:53;14.40;81.30
18712;DHT22;9485;49.386;8.674;2022-09-30T20:22:14;14.20;81.40
18712;DHT22;9485;49.386;8.674;2022-09-30T20:27:36;14.20;81.60
18712;DHT22;9485;49.386;8.674;2022-09-30T20:33:04;14.10;81.00
18712;DHT22;9485;49.386;8.674;2022-09-30T20:38:25;14.10;82.00
18712;DHT22;9485;49.386;8.674;2022-09-30T20:43:48;13.90;81.80
18712;DHT22;9485;49.386;8.674;2022-09-30T20:49:11;13.90;82.10
18712;DHT22;9485;49.386;8.674;2022-09-30T20:54:38;13.80;82.50
18712;DHT22;9485;49.386;8.674;2022-09-30T20:59:58;13.80;82.90
18712;DHT22;9485;49.386;8.674;2022-09-30T21:05:21;13.70;83.20
18712;DHT22;9485;49.386;8.674;2022-09-30T21:10:42;13.80;83.50
18712;DHT22;9485;49.386;8.674;2022-09-30T21:16:04;13.70;83.70
18712;DHT22;9485;49.386;8.674;2022-09-30T21:21:27;13.70;83.90
18712;DHT22;9485;49.386;8.674;2022-09-30T21:26:48;13.70;84.10
18712;DHT22;9485;49.386;8.674;2022-09-30T21:32:09;13.70;84.40
18712;DHT22;9485;49.386;8.674;2022-09-30T21:37:30;13.60;84.70
18712;DHT22;9485;49.386;8.674;2022-09-30T21:42:51;13.60;84.80
18712;DHT22;9485;49.386;8.674;2022-09-30T21:48:12;13.60;84.90
18712;DHT22;9485;49.386;8.674;2022-09-30T21:53:34;13.60;85.10
18712;DHT22;9485;49.386;8.674;2022-09-30T21:58:57;13.60;85.30
18712;DHT22;9485;49.386;8.674;2022-09-30T22:04:25;13.50;85.50
18712;DHT22;9485;49.386;8.674;2022-09-30T22:09:48;13.50;85.90
18712;DHT22;9485;49.386;8.674;2022-09-30T22:15:09;13.50;86.40
18712;DHT22;9485;49.386;8.674;2022-09-30T22:20:30;13.60;86.70
18712;DHT22;9485;49.386;8.674;2022-09-30T22:25:52;13.70;87.00
18712;DHT22;9485;49.386;8.674;2022-09-30T22:31:28;13.80;87.00
18712;DHT22;9485;49.386;8.674;2022-09-30T22:36:55;13.90;86.90
18712;DHT22;9485;49.386;8.674;2022-09-30T22:42:35;14.00;87.00
18712;DHT22;9485;49.386;8.674;2022-09-30T22:47:56;14.10;87.00
18712;DHT22;9485;49.386;8.674;2022-09-30T22:53:18;14.10;87.00
18712;DHT22;9485;49.386;8.674;2022-09-30T22:58:41;14.20;86.90
18712;DHT22;9485;49.386;8.674;2022-09-30T23:04:03;14.10;86.70
18712;DHT22;9485;49.386;8.674;2022-09-30T23:09:24;14.20;86.80
18712;DHT22;9485;49.386;8.674;2022-09-30T23:14:47;14.20;86.60
18712;DHT22;9485;49.386;8.674;2022-09-30T23:20:09;14.20;86.70
18712;DHT22;9485;49.386;8.674;2022-09-30T23:25:30;14.20;86.70
18712;DHT22;9485;49.386;8.674;2022-09-30T23:30:52;14.20;86.80
18712;DHT22;9485;49.386;8.674;2022-09-30T23:36:14;14.10;86.60
18712;DHT22;9485;49.386;8.674;2022-09-30T23:41:36;14.20;86.70
18712;DHT22;9485;49.386;8.674;2022-09-30T23:46:59;14.20;86.80
18712;DHT22;9485;49.386;8.674;2022-09-30T23:52:38;14.20;86.60
18712;DHT22;9485;49.386;8.674;2022-09-30T23:58:00;14.20;86.90
